Time;durP1;ratioP1;P1;durP2;ratioP2;P2;SDS_P1;SDS_P2;PMS_P1;PMS_P2;Temp;Humidity;BMP_temperature;BMP_pressure;BME280_temperature;BME280_humidity;BME280_pressure;Samples;Min_cycle;Max_cycle;Signal;HPM_P1;HPM_P2
2023/12/08 00:01:30;;;;;;;86.10;26.77;;;;;;;;;;8364603;28;20043;-91
2023/12/08 00:05:33;;;;;;;96.28;29.38;;;;;;;;;;8364463;28;20174;-91
2023/12/08 00:09:37;;;;;;;90.70;28.98;;;;;;;;;;8361623;28;20099;-89
2023/12/08 00:13:40;;;;;;;93.43;26.25;;;;;;;;;;8364903;28;20045;-91
2023/12/08 00:17:44;;;;;;;83.60;27.33;;;;;;;;;;8364218;28;20047;-92
2023/12/08 00:21:47;;;;;;;74.10;25.08;;;;;;;;;;8367779;28;20101;-92
2023/12/08 00:25:50;;;;;;;91.20;26.17;;;;;;;;;;8370848;28;20044;-92
2023/12/08 00:35:37;;;;;;;74.88;24.90;;;;;;;;;;8268913;28;20135;-91
2023/12/08 00:40:01;;;;;;;84.88;24.90;;;;;;;;;;8252171;28;20522;-91
2023/12/08 00:44:04;;;;;;;80.47;25.25;;;;;;;;;;8268984;28;20407;-91
2023/12/08 00:48:07;;;;;;;76.07;24.17;;;;;;;;;;8269261;28;20054;-91
2023/12/08 00:52:14;;;;;;;81.93;26.83;;;;;;;;;;8268982;28;20058;-91
2023/12/08 00:56:17;;;;;;;84.32;28.35;;;;;;;;;;8251518;28;20135;-92
2023/12/08 01:00:27;;;;;;;77.45;25.98;;;;;;;;;;8250395;28;20132;-90
2023/12/08 01:08:52;;;;;;;84.88;25.98;;;;;;;;;;8369236;28;20048;-91
2023/12/08 01:12:54;;;;;;;85.95;25.48;;;;;;;;;;8369006;28;20114;-91
2023/12/08 01:16:57;;;;;;;82.80;23.98;;;;;;;;;;8360659;28;20045;-92
2023/12/08 01:21:00;;;;;;;81.28;23.73;;;;;;;;;;8368649;28;20130;-91
2023/12/08 01:25:06;;;;;;;82.35;25.95;;;;;;;;;;8369498;28;20090;-92
2023/12/08 01:29:10;;;;;;;71.60;24.13;;;;;;;;;;8369252;28;20055;-92
2023/12/08 01:33:13;;;;;;;72.60;23.15;;;;;;;;;;8367508;28;20045;-92
2023/12/08 01:37:16;;;;;;;77.00;23.95;;;;;;;;;;8369084;28;20048;-92
2023/12/08 01:41:20;;;;;;;78.70;23.50;;;;;;;;;;8368708;28;20041;-93
2023/12/08 01:45:23;;;;;;;74.60;22.08;;;;;;;;;;8368498;28;20049;-92
2023/12/08 01:49:26;;;;;;;66.55;21.70;;;;;;;;;;8369266;28;20049;-92
2023/12/08 01:53:29;;;;;;;83.47;26.48;;;;;;;;;;8368141;28;20048;-92
2023/12/08 01:57:34;;;;;;;75.85;24.23;;;;;;;;;;8364746;28;20048;-92
2023/12/08 02:01:37;;;;;;;70.35;23.65;;;;;;;;;;8368266;28;20076;-90
2023/12/08 02:05:42;;;;;;;85.15;26.02;;;;;;;;;;8367839;28;20033;-93
2023/12/08 02:09:45;;;;;;;69.68;23.70;;;;;;;;;;8367873;28;20536;-93
2023/12/08 02:13:54;;;;;;;80.60;23.45;;;;;;;;;;8367832;28;20041;-92
2023/12/08 02:17:58;;;;;;;82.57;25.05;;;;;;;;;;8367766;28;20056;-92
2023/12/08 02:22:08;;;;;;;71.55;22.48;;;;;;;;;;8367813;28;20125;-91
2023/12/08 02:26:13;;;;;;;60.42;20.85;;;;;;;;;;8367538;28;20045;-93
2023/12/08 02:30:16;;;;;;;52.20;20.95;;;;;;;;;;8367341;28;20064;-92
2023/12/08 02:34:22;;;;;;;77.63;24.85;;;;;;;;;;8367469;28;20499;-92
2023/12/08 02:38:27;;;;;;;67.40;23.63;;;;;;;;;;8367038;28;20049;-92
2023/12/08 02:42:31;;;;;;;60.80;22.33;;;;;;;;;;8366588;28;20505;-90
2023/12/08 02:46:34;;;;;;;78.40;27.38;;;;;;;;;;8366697;28;20052;-93
2023/12/08 02:50:37;;;;;;;76.05;25.55;;;;;;;;;;8366583;28;20127;-93
2023/12/08 02:54:40;;;;;;;78.85;24.00;;;;;;;;;;8366535;28;20048;-92
2023/12/08 02:58:44;;;;;;;64.05;24.65;;;;;;;;;;8366646;28;20280;-92
2023/12/08 03:02:47;;;;;;;65.88;21.67;;;;;;;;;;8366336;28;20041;-93
2023/12/08 03:06:50;;;;;;;90.78;26.13;;;;;;;;;;8366583;28;20045;-92
2023/12/08 03:10:53;;;;;;;84.68;28.92;;;;;;;;;;8366188;28;20055;-92
2023/12/08 03:20:10;;;;;;;87.00;27.92;;;;;;;;;;8263313;28;20522;-92
2023/12/08 03:24:13;;;;;;;68.78;23.20;;;;;;;;;;8336749;28;20067;-92
2023/12/08 03:28:16;;;;;;;77.53;26.77;;;;;;;;;;8366498;28;20067;-92
2023/12/08 03:32:19;;;;;;;64.05;22.33;;;;;;;;;;8359826;28;20566;-92
2023/12/08 03:36:23;;;;;;;73.38;25.80;;;;;;;;;;8365855;28;20125;-93
2023/12/08 03:40:26;;;;;;;82.13;27.35;;;;;;;;;;8499995;22;20093;-92
2023/12/08 03:44:29;;;;;;;82.28;24.65;;;;;;;;;;8343102;28;20052;-92
2023/12/08 03:48:34;;;;;;;97.18;26.50;;;;;;;;;;8364963;28;20128;-91
2023/12/08 03:52:54;;;;;;;82.78;27.35;;;;;;;;;;8362107;28;20095;-93
2023/12/08 03:56:58;;;;;;;96.10;30.15;;;;;;;;;;8360798;28;20045;-92
2023/12/08 04:01:01;;;;;;;81.18;25.10;;;;;;;;;;8372117;28;20041;-92
2023/12/08 04:05:04;;;;;;;75.68;25.90;;;;;;;;;;8372292;28;20053;-92
2023/12/08 04:09:09;;;;;;;97.75;30.38;;;;;;;;;;8372017;28;20068;-92
2023/12/08 04:13:12;;;;;;;91.07;27.17;;;;;;;;;;8371813;28;20463;-91
2023/12/08 04:17:15;;;;;;;83.90;25.33;;;;;;;;;;8372077;28;20068;-91
2023/12/08 04:21:18;;;;;;;85.95;26.75;;;;;;;;;;8371429;28;20052;-91
2023/12/08 04:25:23;;;;;;;77.28;23.58;;;;;;;;;;8371137;28;20049;-90
2023/12/08 04:34:12;;;;;;;91.55;24.95;;;;;;;;;;8343611;28;20076;-92
2023/12/08 04:43:47;;;;;;;87.57;26.83;;;;;;;;;;8334322;28;20045;-92
2023/12/08 04:47:49;;;;;;;85.35;27.45;;;;;;;;;;8336903;28;20052;-91
2023/12/08 04:51:52;;;;;;;86.05;28.85;;;;;;;;;;8337386;28;20049;-91
2023/12/08 04:55:56;;;;;;;91.75;27.13;;;;;;;;;;8337600;28;20141;-90
2023/12/08 05:00:00;;;;;;;91.10;28.40;;;;;;;;;;8337109;28;20046;-92
2023/12/08 05:04:04;;;;;;;82.15;27.73;;;;;;;;;;8337275;28;20558;-93
2023/12/08 05:08:07;;;;;;;103.75;29.00;;;;;;;;;;8336985;28;20055;-92
2023/12/08 05:12:20;;;;;;;89.25;26.95;;;;;;;;;;8336037;28;20073;-92
2023/12/08 05:16:24;;;;;;;96.07;29.20;;;;;;;;;;8335798;28;20081;-91
2023/12/08 05:20:30;;;;;;;98.43;35.75;;;;;;;;;;8336704;28;20042;-92
2023/12/08 05:24:54;;;;;;;50.28;19.10;;;;;;;;;;8275949;28;20056;-91
2023/12/08 05:28:56;;;;;;;183.48;69.38;;;;;;;;;;8336819;28;20140;-92
2023/12/08 05:33:01;;;;;;;116.22;35.83;;;;;;;;;;8336185;28;20041;-89
2023/12/08 05:54:04;;;;;;;107.80;31.70;;;;;;;;;;8401779;28;20134;-90
2023/12/08 05:58:07;;;;;;;212.43;70.72;;;;;;;;;;8384597;28;20400;-92
2023/12/08 06:02:10;;;;;;;142.00;44.90;;;;;;;;;;8401946;28;20530;-91
2023/12/08 06:06:13;;;;;;;96.63;34.47;;;;;;;;;;8401283;28;20048;-91
2023/12/08 06:10:18;;;;;;;92.95;33.33;;;;;;;;;;8401556;28;20079;-91
2023/12/08 06:14:24;;;;;;;121.90;35.70;;;;;;;;;;8401028;28;20454;-90
2023/12/08 06:18:27;;;;;;;120.85;39.90;;;;;;;;;;8383670;28;20067;-91
2023/12/08 06:22:30;;;;;;;94.28;30.95;;;;;;;;;;8400960;28;20051;-91
2023/12/08 06:26:34;;;;;;;92.28;34.30;;;;;;;;;;8383109;28;20056;-90
2023/12/08 06:30:37;;;;;;;77.30;24.95;;;;;;;;;;8399846;28;20048;-91
2023/12/08 06:34:40;;;;;;;85.15;30.98;;;;;;;;;;8399657;28;20044;-92
2023/12/08 06:38:43;;;;;;;95.55;30.55;;;;;;;;;;8400874;28;20044;-91
2023/12/08 06:42:48;;;;;;;75.13;25.13;;;;;;;;;;8398351;28;20463;-93
2023/12/08 06:46:51;;;;;;;92.18;31.75;;;;;;;;;;8398290;28;20060;-90
2023/12/08 06:50:54;;;;;;;79.78;27.63;;;;;;;;;;8381162;28;20064;-92
2023/12/08 06:54:57;;;;;;;81.60;29.25;;;;;;;;;;8398601;28;20045;-92
2023/12/08 06:59:04;;;;;;;93.72;32.88;;;;;;;;;;8399141;28;20044;-93
2023/12/08 07:03:07;;;;;;;79.18;28.58;;;;;;;;;;8398848;28;20419;-91
2023/12/08 07:07:11;;;;;;;108.55;32.08;;;;;;;;;;8399139;28;20123;-89
2023/12/08 07:11:14;;;;;;;165.85;47.53;;;;;;;;;;8398698;28;20048;-90
2023/12/08 07:15:20;;;;;;;103.95;34.53;;;;;;;;;;8398439;28;20051;-92
2023/12/08 07:19:23;;;;;;;102.80;39.15;;;;;;;;;;8398878;28;20047;-91
2023/12/08 07:23:25;;;;;;;97.28;35.38;;;;;;;;;;8398037;28;20052;-91
2023/12/08 07:27:28;;;;;;;87.25;28.00;;;;;;;;;;8398205;28;20048;-90
2023/12/08 07:31:33;;;;;;;76.50;29.75;;;;;;;;;;8397103;28;20109;-92
2023/12/08 07:35:36;;;;;;;89.00;32.60;;;;;;;;;;8397850;28;20077;-92
2023/12/08 07:39:41;;;;;;;95.05;29.58;;;;;;;;;;8400282;28;20047;-92
2023/12/08 07:43:48;;;;;;;81.85;31.88;;;;;;;;;;8397767;28;20178;-92
2023/12/08 07:47:53;;;;;;;102.53;32.92;;;;;;;;;;8397743;28;20044;-92
2023/12/08 07:51:55;;;;;;;97.95;31.95;;;;;;;;;;8398045;28;20044;-92
2023/12/08 07:55:59;;;;;;;79.95;27.73;;;;;;;;;;8397668;28;20048;-92
2023/12/08 08:00:06;;;;;;;90.60;29.90;;;;;;;;;;8397943;28;20131;-90
2023/12/08 08:04:12;;;;;;;222.15;63.85;;;;;;;;;;8397811;28;20052;-92
2023/12/08 08:08:15;;;;;;;121.57;38.00;;;;;;;;;;8398274;28;20044;-93
2023/12/08 08:12:18;;;;;;;147.82;44.20;;;;;;;;;;8380057;28;20048;-91
2023/12/08 08:16:21;;;;;;;85.00;30.60;;;;;;;;;;8397856;28;20385;-89
2023/12/08 08:20:26;;;;;;;83.45;31.80;;;;;;;;;;8397516;28;20044;-92
2023/12/08 08:24:29;;;;;;;109.90;42.10;;;;;;;;;;8397564;28;20075;-93
2023/12/08 08:28:35;;;;;;;267.30;84.50;;;;;;;;;;8397253;28;20045;-95
2023/12/08 08:32:38;;;;;;;62.70;25.05;;;;;;;;;;8397490;28;20476;-95
2023/12/08 08:36:43;;;;;;;71.93;24.17;;;;;;;;;;8380104;28;20064;-90
2023/12/08 08:40:48;;;;;;;74.43;24.25;;;;;;;;;;8396744;28;20063;-94
2023/12/08 08:44:52;;;;;;;96.93;36.15;;;;;;;;;;8403871;28;20045;-93
2023/12/08 08:48:55;;;;;;;86.07;27.00;;;;;;;;;;8403724;28;20053;-91
2023/12/08 08:53:00;;;;;;;72.00;26.15;;;;;;;;;;8403315;28;20072;-89
2023/12/08 08:57:04;;;;;;;83.90;34.97;;;;;;;;;;8403522;28;20044;-93
2023/12/08 09:01:07;;;;;;;71.10;28.25;;;;;;;;;;8403653;28;20573;-93
2023/12/08 09:05:11;;;;;;;90.20;32.42;;;;;;;;;;8386645;28;20072;-93
2023/12/08 09:09:16;;;;;;;123.80;36.80;;;;;;;;;;8403502;28;20052;-94
2023/12/08 09:13:18;;;;;;;58.88;21.40;;;;;;;;;;8385929;28;20087;-94
2023/12/08 09:17:21;;;;;;;45.58;18.73;;;;;;;;;;8402435;28;20102;-92
2023/12/08 09:21:26;;;;;;;46.75;19.33;;;;;;;;;;8402328;28;20121;-94
2023/12/08 09:25:48;;;;;;;44.88;18.60;;;;;;;;;;8401736;28;20053;-93
2023/12/08 09:29:51;;;;;;;61.22;19.25;;;;;;;;;;8402679;28;20068;-92
2023/12/08 09:33:56;;;;;;;57.22;22.08;;;;;;;;;;8402104;28;20250;-94
2023/12/08 09:37:59;;;;;;;29.17;13.95;;;;;;;;;;8402304;28;20047;-92
2023/12/08 09:42:08;;;;;;;42.95;19.83;;;;;;;;;;8401635;28;20091;-93
2023/12/08 09:46:12;;;;;;;56.88;20.83;;;;;;;;;;8401744;28;20123;-94
2023/12/08 09:50:31;;;;;;;47.80;17.60;;;;;;;;;;8383831;28;20049;-90
2023/12/08 09:54:35;;;;;;;53.78;20.00;;;;;;;;;;8400617;28;20055;-92
2023/12/08 09:58:41;;;;;;;46.08;18.35;;;;;;;;;;8401028;28;20087;-92
2023/12/08 10:02:44;;;;;;;51.22;19.02;;;;;;;;;;8401267;28;20048;-91
2023/12/08 10:06:48;;;;;;;52.80;18.02;;;;;;;;;;8400626;28;20083;-88
2023/12/08 10:10:51;;;;;;;45.85;18.55;;;;;;;;;;8400691;28;20551;-90
2023/12/08 10:14:58;;;;;;;32.58;12.77;;;;;;;;;;8400608;28;20047;-93
2023/12/08 10:19:05;;;;;;;45.60;16.48;;;;;;;;;;8400594;28;20105;-91
2023/12/08 10:23:08;;;;;;;46.53;18.50;;;;;;;;;;8400444;28;20055;-92
2023/12/08 10:27:12;;;;;;;25.02;11.30;;;;;;;;;;8400063;28;20076;-93
2023/12/08 10:31:16;;;;;;;43.67;16.85;;;;;;;;;;8399695;28;20629;-91
2023/12/08 10:35:20;;;;;;;60.22;23.08;;;;;;;;;;8399749;28;20545;-93
2023/12/08 10:39:25;;;;;;;58.05;23.25;;;;;;;;;;8399809;28;20653;-91
2023/12/08 10:43:30;;;;;;;52.00;18.52;;;;;;;;;;8399203;28;20579;-92
2023/12/08 10:47:35;;;;;;;45.97;17.67;;;;;;;;;;8382167;28;20139;-91
2023/12/08 10:51:39;;;;;;;50.10;17.20;;;;;;;;;;8399733;28;20059;-93
2023/12/08 10:55:42;;;;;;;42.97;18.88;;;;;;;;;;8381966;28;20047;-90
2023/12/08 10:59:45;;;;;;;49.78;17.42;;;;;;;;;;8382172;28;20110;-91
2023/12/08 11:03:53;;;;;;;46.67;18.42;;;;;;;;;;8399311;28;20049;-91
2023/12/08 11:08:00;;;;;;;17.88;8.82;;;;;;;;;;8401996;28;20052;-90
2023/12/08 11:12:07;;;;;;;41.22;16.25;;;;;;;;;;8402348;28;20439;-93
2023/12/08 11:16:24;;;;;;;178.65;54.35;;;;;;;;;;8399198;28;20127;-93
2023/12/08 11:20:29;;;;;;;36.95;15.15;;;;;;;;;;8398926;28;20210;-92
2023/12/08 11:24:33;;;;;;;115.40;37.80;;;;;;;;;;8398991;28;20040;-90
2023/12/08 11:28:43;;;;;;;71.03;27.40;;;;;;;;;;8382308;28;20063;-93
2023/12/08 11:32:54;;;;;;;91.53;29.48;;;;;;;;;;8399071;28;20049;-91
2023/12/08 11:36:59;;;;;;;82.77;25.20;;;;;;;;;;8398752;28;20132;-91
2023/12/08 11:41:10;;;;;;;66.07;19.35;;;;;;;;;;8398770;28;20056;-93
2023/12/08 11:45:13;;;;;;;42.20;16.10;;;;;;;;;;8399315;28;20096;-93
2023/12/08 11:49:19;;;;;;;105.75;36.53;;;;;;;;;;8398666;28;20123;-93
2023/12/08 11:53:27;;;;;;;105.53;30.88;;;;;;;;;;8399007;28;20040;-91
2023/12/08 11:57:30;;;;;;;36.60;15.40;;;;;;;;;;8398597;28;20044;-92
2023/12/08 12:01:36;;;;;;;77.57;23.13;;;;;;;;;;8399013;28;20507;-90
2023/12/08 12:05:40;;;;;;;87.88;28.30;;;;;;;;;;8381507;28;20074;-91
2023/12/08 12:09:45;;;;;;;43.90;17.27;;;;;;;;;;8398381;28;20476;-92
2023/12/08 12:13:48;;;;;;;63.03;22.52;;;;;;;;;;8397792;28;20159;-88
2023/12/08 12:17:52;;;;;;;104.53;30.50;;;;;;;;;;8400458;28;20052;-93
2023/12/08 12:21:55;;;;;;;110.13;36.40;;;;;;;;;;8403885;28;20052;-93
2023/12/08 12:26:00;;;;;;;49.13;20.15;;;;;;;;;;8404199;28;20072;-92
2023/12/08 12:30:04;;;;;;;79.10;23.60;;;;;;;;;;8387460;28;20049;-92
2023/12/08 12:34:07;;;;;;;105.30;31.30;;;;;;;;;;8404131;28;20045;-93
2023/12/08 12:38:13;;;;;;;99.82;33.38;;;;;;;;;;8404136;28;20448;-92
2023/12/08 12:42:18;;;;;;;70.25;25.25;;;;;;;;;;8403676;28;20135;-87
2023/12/08 12:46:21;;;;;;;26.77;11.07;;;;;;;;;;8402050;28;20048;-88
2023/12/08 12:50:24;;;;;;;61.08;22.05;;;;;;;;;;8402296;28;20123;-88
2023/12/08 12:54:34;;;;;;;25.42;10.48;;;;;;;;;;8402116;28;20478;-88
2023/12/08 12:58:39;;;;;;;48.55;20.27;;;;;;;;;;8402184;28;20055;-88
2023/12/08 13:02:42;;;;;;;85.65;26.70;;;;;;;;;;8385304;28;20468;-88
2023/12/08 13:06:45;;;;;;;46.67;17.92;;;;;;;;;;8402353;28;20047;-88
2023/12/08 13:10:50;;;;;;;89.50;26.00;;;;;;;;;;8402420;28;20090;-90
2023/12/08 13:14:54;;;;;;;63.22;22.85;;;;;;;;;;8401595;28;20442;-87
2023/12/08 13:18:57;;;;;;;55.25;19.58;;;;;;;;;;8401195;28;20079;-87
2023/12/08 13:23:00;;;;;;;58.63;23.88;;;;;;;;;;8401339;28;20119;-92
2023/12/08 13:27:04;;;;;;;45.05;17.67;;;;;;;;;;8400914;28;20173;-88
2023/12/08 13:31:08;;;;;;;52.75;22.08;;;;;;;;;;8399636;28;20455;-87
2023/12/08 13:35:11;;;;;;;62.33;22.85;;;;;;;;;;8400934;28;20484;-87
2023/12/08 13:39:14;;;;;;;57.70;20.17;;;;;;;;;;8401088;28;20397;-91
2023/12/08 13:43:17;;;;;;;42.75;17.20;;;;;;;;;;8400569;28;20056;-91
2023/12/08 13:47:22;;;;;;;54.83;20.13;;;;;;;;;;8400107;28;20135;-87
2023/12/08 13:51:25;;;;;;;39.20;18.27;;;;;;;;;;8382959;28;20117;-88
2023/12/08 13:55:28;;;;;;;84.78;34.08;;;;;;;;;;8400011;28;20068;-86
2023/12/08 13:59:32;;;;;;;43.33;17.17;;;;;;;;;;8382035;28;20051;-90
2023/12/08 14:03:36;;;;;;;44.75;17.52;;;;;;;;;;8400242;28;20068;-88
2023/12/08 14:07:40;;;;;;;61.28;24.55;;;;;;;;;;8399670;28;20530;-88
2023/12/08 14:11:43;;;;;;;73.35;27.98;;;;;;;;;;8399161;28;20067;-90
2023/12/08 14:15:46;;;;;;;55.33;24.50;;;;;;;;;;8399473;28;20479;-88
2023/12/08 14:19:51;;;;;;;49.65;22.25;;;;;;;;;;8399447;28;20067;-88
2023/12/08 14:23:53;;;;;;;36.40;14.32;;;;;;;;;;8381361;28;20496;-87
2023/12/08 14:27:56;;;;;;;36.03;14.68;;;;;;;;;;8398912;28;20098;-86
2023/12/08 14:31:59;;;;;;;41.75;18.63;;;;;;;;;;8398757;28;20097;-87
2023/12/08 14:36:04;;;;;;;43.28;20.73;;;;;;;;;;8398664;28;20475;-88
2023/12/08 14:40:09;;;;;;;33.15;14.82;;;;;;;;;;8398411;28;20469;-87
2023/12/08 14:44:12;;;;;;;40.28;18.15;;;;;;;;;;8398624;28;20041;-85
2023/12/08 14:48:15;;;;;;;30.40;14.38;;;;;;;;;;8397891;28;20078;-85
2023/12/08 14:52:20;;;;;;;52.47;21.83;;;;;;;;;;8397547;28;20523;-87
2023/12/08 14:56:25;;;;;;;133.13;55.70;;;;;;;;;;8398347;28;20072;-87
2023/12/08 15:00:28;;;;;;;34.70;15.43;;;;;;;;;;8399076;28;20484;-86
2023/12/08 15:04:31;;;;;;;52.20;21.25;;;;;;;;;;8402203;28;20127;-86
2023/12/08 15:08:36;;;;;;;95.30;34.33;;;;;;;;;;8401714;28;20036;-85
2023/12/08 15:12:39;;;;;;;39.67;16.40;;;;;;;;;;8397638;28;20056;-89
2023/12/08 15:16:43;;;;;;;47.58;17.48;;;;;;;;;;8380471;28;20058;-91
2023/12/08 15:20:50;;;;;;;38.13;15.57;;;;;;;;;;8380813;28;20075;-92
2023/12/08 15:24:55;;;;;;;47.67;19.88;;;;;;;;;;8398824;28;20049;-88
2023/12/08 15:28:58;;;;;;;36.38;16.10;;;;;;;;;;8398753;28;20071;-90
2023/12/08 15:33:01;;;;;;;98.53;40.22;;;;;;;;;;8398836;28;20068;-89
2023/12/08 15:37:04;;;;;;;45.88;19.75;;;;;;;;;;8381312;28;20044;-91
2023/12/08 15:41:10;;;;;;;59.70;23.45;;;;;;;;;;8398934;28;20121;-91
2023/12/08 15:45:13;;;;;;;53.33;20.60;;;;;;;;;;8399553;28;20061;-92
2023/12/08 15:49:16;;;;;;;27.80;12.13;;;;;;;;;;8398919;28;20130;-91
2023/12/08 15:53:21;;;;;;;38.92;15.07;;;;;;;;;;8398069;28;20044;-92
2023/12/08 15:57:26;;;;;;;50.03;20.15;;;;;;;;;;8398998;28;20127;-92
2023/12/08 16:01:31;;;;;;;39.35;16.73;;;;;;;;;;8398133;28;20079;-90
2023/12/08 16:05:34;;;;;;;44.42;17.70;;;;;;;;;;8398119;28;20090;-92
2023/12/08 16:09:41;;;;;;;39.15;14.32;;;;;;;;;;8381175;28;20084;-88
2023/12/08 16:13:46;;;;;;;38.88;15.50;;;;;;;;;;8398212;28;20051;-91
2023/12/08 16:17:49;;;;;;;38.50;14.70;;;;;;;;;;8398788;28;20131;-92
2023/12/08 16:21:52;;;;;;;36.22;14.38;;;;;;;;;;8398892;28;20122;-91
2023/12/08 16:26:00;;;;;;;35.03;14.63;;;;;;;;;;8398097;28;20045;-92
2023/12/08 16:30:04;;;;;;;62.28;31.70;;;;;;;;;;8380228;28;20048;-93
2023/12/08 16:34:07;;;;;;;41.10;19.23;;;;;;;;;;8398286;28;20134;-93
2023/12/08 16:38:09;;;;;;;70.07;24.65;;;;;;;;;;8379892;28;20052;-92
2023/12/08 16:42:12;;;;;;;33.00;13.65;;;;;;;;;;8397833;28;20136;-92
2023/12/08 16:46:17;;;;;;;38.65;15.35;;;;;;;;;;8397791;28;20036;-92
2023/12/08 16:50:20;;;;;;;49.00;19.52;;;;;;;;;;8397970;28;20169;-91
2023/12/08 16:54:23;;;;;;;46.35;20.73;;;;;;;;;;8397525;28;20048;-90
2023/12/08 16:58:26;;;;;;;39.85;16.80;;;;;;;;;;8397677;28;20052;-93
2023/12/08 17:02:31;;;;;;;40.67;16.60;;;;;;;;;;8398445;28;20513;-91
2023/12/08 17:06:34;;;;;;;48.35;18.92;;;;;;;;;;8403323;28;20090;-92
2023/12/08 17:10:39;;;;;;;36.05;15.65;;;;;;;;;;8403228;28;20045;-87
2023/12/08 17:14:42;;;;;;;30.48;11.32;;;;;;;;;;8386199;28;20098;-90
2023/12/08 17:18:54;;;;;;;39.05;17.73;;;;;;;;;;8402959;28;20055;-90
2023/12/08 17:22:57;;;;;;;32.33;11.48;;;;;;;;;;8403530;28;20518;-92
2023/12/08 17:27:00;;;;;;;23.83;12.18;;;;;;;;;;8403242;28;20139;-92
2023/12/08 17:31:03;;;;;;;50.08;20.48;;;;;;;;;;8402804;28;20052;-92
2023/12/08 17:35:10;;;;;;;54.85;26.27;;;;;;;;;;8402939;28;20123;-90
2023/12/08 17:39:13;;;;;;;43.38;17.25;;;;;;;;;;8402747;28;20055;-91
2023/12/08 17:43:16;;;;;;;66.50;29.17;;;;;;;;;;8384426;28;20500;-93
2023/12/08 17:47:19;;;;;;;82.72;32.25;;;;;;;;;;8402616;28;20080;-93
2023/12/08 17:51:24;;;;;;;40.55;14.63;;;;;;;;;;8402287;28;20049;-92
2023/12/08 17:55:27;;;;;;;58.10;22.58;;;;;;;;;;8402708;28;20055;-92
2023/12/08 17:59:30;;;;;;;61.75;23.70;;;;;;;;;;8405385;28;20507;-90
2023/12/08 18:03:33;;;;;;;45.97;18.95;;;;;;;;;;8412758;28;20064;-91
2023/12/08 18:08:22;;;;;;;74.85;26.77;;;;;;;;;;8394239;28;20067;-87
2023/12/08 18:12:25;;;;;;;45.35;18.77;;;;;;;;;;8382798;28;20057;-86
2023/12/08 18:16:30;;;;;;;49.17;20.38;;;;;;;;;;8374120;28;20033;-87
2023/12/08 18:24:54;;;;;;;41.72;16.13;;;;;;;;;;8366374;28;20057;-90
2023/12/08 18:29:21;;;;;;;47.97;17.52;;;;;;;;;;8367496;28;20045;-93
2023/12/08 18:33:27;;;;;;;79.55;31.55;;;;;;;;;;8355392;28;20056;-90
2023/12/08 18:37:40;;;;;;;51.13;16.77;;;;;;;;;;8363900;28;20056;-92
2023/12/08 18:41:44;;;;;;;67.10;26.95;;;;;;;;;;8349229;28;20063;-88
2023/12/08 18:45:47;;;;;;;39.60;14.90;;;;;;;;;;8366725;28;20047;-91
2023/12/08 18:49:50;;;;;;;44.20;16.13;;;;;;;;;;8366355;28;20124;-90
2023/12/08 18:53:59;;;;;;;60.08;26.40;;;;;;;;;;8366341;28;20481;-89
2023/12/08 18:58:06;;;;;;;62.30;23.42;;;;;;;;;;8366122;28;20385;-91
2023/12/08 19:02:09;;;;;;;44.67;18.08;;;;;;;;;;8365448;28;20045;-85
2023/12/08 19:06:13;;;;;;;20.63;10.10;;;;;;;;;;8365098;28;20044;-92
2023/12/08 19:10:16;;;;;;;33.38;14.48;;;;;;;;;;8365598;28;20055;-90
2023/12/08 19:14:21;;;;;;;35.95;12.57;;;;;;;;;;8384394;28;20044;-92
2023/12/08 19:18:24;;;;;;;54.40;19.65;;;;;;;;;;8379099;28;20056;-89
2023/12/08 19:22:27;;;;;;;25.83;8.75;;;;;;;;;;8398235;28;20117;-89
2023/12/08 19:26:33;;;;;;;58.33;21.17;;;;;;;;;;8381109;28;20201;-90
2023/12/08 19:30:37;;;;;;;59.53;21.77;;;;;;;;;;8397952;28;20055;-89
2023/12/08 19:34:40;;;;;;;50.67;24.42;;;;;;;;;;8397456;28;20070;-89
2023/12/08 19:38:43;;;;;;;53.25;19.23;;;;;;;;;;8397492;28;20048;-89
2023/12/08 19:42:47;;;;;;;37.88;18.52;;;;;;;;;;8398402;28;20057;-94
2023/12/08 19:46:53;;;;;;;59.30;28.25;;;;;;;;;;8398720;28;20052;-91
2023/12/08 19:50:58;;;;;;;54.20;22.52;;;;;;;;;;8398675;28;20121;-92
2023/12/08 19:55:07;;;;;;;28.98;13.07;;;;;;;;;;8398622;28;20044;-89
2023/12/08 19:59:10;;;;;;;31.33;14.05;;;;;;;;;;8398362;28;20139;-93
2023/12/08 20:03:18;;;;;;;39.17;14.63;;;;;;;;;;8296379;28;20053;-92
2023/12/08 20:07:22;;;;;;;40.72;15.45;;;;;;;;;;8279877;28;20556;-91
2023/12/08 20:11:26;;;;;;;37.35;12.68;;;;;;;;;;8279580;28;20052;-91
2023/12/08 20:20:13;;;;;;;37.75;12.55;;;;;;;;;;8329748;28;20060;-93
2023/12/08 20:24:19;;;;;;;42.90;14.35;;;;;;;;;;8398058;28;20048;-91
2023/12/08 20:28:25;;;;;;;37.50;13.13;;;;;;;;;;8380169;28;20060;-93
2023/12/08 20:32:29;;;;;;;44.30;15.43;;;;;;;;;;8397650;28;20131;-90
2023/12/08 20:36:34;;;;;;;44.97;14.43;;;;;;;;;;8397333;28;20052;-91
2023/12/08 20:40:43;;;;;;;44.08;17.00;;;;;;;;;;8403620;28;20078;-92
2023/12/08 20:44:46;;;;;;;33.22;11.45;;;;;;;;;;8369796;28;20045;-91
2023/12/08 20:48:52;;;;;;;20.20;9.40;;;;;;;;;;8413295;28;20052;-92
2023/12/08 20:52:57;;;;;;;32.40;13.43;;;;;;;;;;8399771;28;20059;-90
2023/12/08 20:57:01;;;;;;;31.83;12.88;;;;;;;;;;8416427;28;20097;-90
2023/12/08 21:01:06;;;;;;;39.83;14.43;;;;;;;;;;8403466;28;20052;-93
2023/12/08 21:05:14;;;;;;;21.95;9.80;;;;;;;;;;8403247;28;20094;-91
2023/12/08 21:09:19;;;;;;;29.73;11.85;;;;;;;;;;8387341;28;20044;-92
2023/12/08 21:13:21;;;;;;;38.78;14.30;;;;;;;;;;8403070;28;20669;-92
2023/12/08 21:17:25;;;;;;;21.73;9.20;;;;;;;;;;8402793;28;20415;-91
2023/12/08 21:21:29;;;;;;;27.83;10.27;;;;;;;;;;8385357;28;20052;-91
2023/12/08 21:25:37;;;;;;;30.30;13.25;;;;;;;;;;8385681;28;20049;-92
2023/12/08 21:29:40;;;;;;;36.20;13.02;;;;;;;;;;8384974;28;20118;-93
2023/12/08 21:33:43;;;;;;;31.85;11.50;;;;;;;;;;8385146;28;20092;-93
2023/12/08 21:37:48;;;;;;;34.00;14.60;;;;;;;;;;8402624;28;20044;-92
2023/12/08 21:41:52;;;;;;;42.83;12.85;;;;;;;;;;8407506;28;20063;-91
2023/12/08 21:46:03;;;;;;;35.72;14.07;;;;;;;;;;8401943;28;20484;-92
2023/12/08 21:50:07;;;;;;;34.35;13.45;;;;;;;;;;8400739;28;20044;-92
2023/12/08 21:54:10;;;;;;;37.70;12.73;;;;;;;;;;8401425;28;20133;-91
2023/12/08 21:58:16;;;;;;;23.25;10.63;;;;;;;;;;8402168;28;20044;-93
2023/12/08 22:02:25;;;;;;;43.70;15.53;;;;;;;;;;8402511;28;20514;-90
2023/12/08 22:06:28;;;;;;;27.80;10.95;;;;;;;;;;8382728;28;20048;-89
2023/12/08 22:10:31;;;;;;;43.28;13.38;;;;;;;;;;8401253;28;20113;-92
2023/12/08 22:14:39;;;;;;;38.15;13.75;;;;;;;;;;8384119;28;20113;-91
2023/12/08 22:18:43;;;;;;;41.25;13.80;;;;;;;;;;8401381;28;20036;-92
2023/12/08 22:22:47;;;;;;;27.75;12.13;;;;;;;;;;8383808;28;20091;-92
2023/12/08 22:26:50;;;;;;;35.38;12.13;;;;;;;;;;8401439;28;20044;-90
2023/12/08 22:30:54;;;;;;;35.47;11.35;;;;;;;;;;8383395;28;20511;-93
2023/12/08 22:34:57;;;;;;;33.10;11.88;;;;;;;;;;8384296;28;20052;-91
2023/12/08 22:39:02;;;;;;;36.03;12.68;;;;;;;;;;8400461;28;20094;-92
2023/12/08 22:43:07;;;;;;;36.40;11.98;;;;;;;;;;8400552;28;20565;-91
2023/12/08 22:47:13;;;;;;;29.48;11.52;;;;;;;;;;8400708;28;20074;-92
2023/12/08 22:51:17;;;;;;;34.72;12.43;;;;;;;;;;8400353;28;20045;-92
2023/12/08 22:55:23;;;;;;;30.27;13.10;;;;;;;;;;8383655;28;20052;-93
2023/12/08 22:59:26;;;;;;;27.88;12.60;;;;;;;;;;8382993;28;20055;-90
2023/12/08 23:03:30;;;;;;;29.38;12.10;;;;;;;;;;8399435;28;20049;-91
2023/12/08 23:07:36;;;;;;;45.28;17.42;;;;;;;;;;8400429;28;20048;-94
2023/12/08 23:11:39;;;;;;;26.25;10.05;;;;;;;;;;8400276;28;20072;-92
2023/12/08 23:15:42;;;;;;;45.88;16.30;;;;;;;;;;8399637;28;20080;-94
2023/12/08 23:19:47;;;;;;;31.98;11.38;;;;;;;;;;8399299;28;20055;-92
2023/12/08 23:24:02;;;;;;;34.00;11.40;;;;;;;;;;8400009;28;20048;-93
2023/12/08 23:28:05;;;;;;;54.28;21.13;;;;;;;;;;8399069;28;20424;-90
2023/12/08 23:32:08;;;;;;;28.65;11.43;;;;;;;;;;8406273;28;20052;-92
2023/12/08 23:36:13;;;;;;;35.17;13.95;;;;;;;;;;8403048;28;20055;-94
2023/12/08 23:40:16;;;;;;;38.22;12.27;;;;;;;;;;8404090;28;20198;-91
2023/12/08 23:44:20;;;;;;;36.03;12.43;;;;;;;;;;8382031;28;20067;-93
2023/12/08 23:48:23;;;;;;;29.30;12.13;;;;;;;;;;8398726;28;20478;-92
2023/12/08 23:52:27;;;;;;;32.55;13.05;;;;;;;;;;8399207;28;20132;-91
2023/12/08 23:56:30;;;;;;;35.13;13.82;;;;;;;;;;8398655;28;20048;-93
